createdAt,value
2018-09-20T00:01:59.859Z,62.49
2018-09-20T00:04:28.638Z,62.38
2018-09-20T00:06:57.414Z,63.27
2018-09-20T00:09:26.184Z,63.48
2018-09-20T00:11:54.956Z,64.27
2018-09-20T00:14:23.790Z,64.61
2018-09-20T00:17:27.099Z,64.90
2018-09-20T00:19:55.885Z,64.38
2018-09-20T00:22:24.706Z,65.08
2018-09-20T00:24:53.537Z,65.02
2018-09-20T00:27:22.339Z,64.38
2018-09-20T00:29:51.079Z,64.82
2018-09-20T00:32:19.825Z,65.02
2018-09-20T00:34:48.585Z,65.20
2018-09-20T00:37:17.362Z,64.89
2018-09-20T00:39:46.139Z,65.14
2018-09-20T00:42:14.933Z,65.16
2018-09-20T00:44:43.747Z,65.89
2018-09-20T00:47:12.499Z,65.01
2018-09-20T00:49:41.338Z,65.37
2018-09-20T00:52:10.155Z,65.32
2018-09-20T00:54:38.939Z,65.55
2018-09-20T00:57:07.867Z,65.49
2018-09-20T00:59:36.682Z,65.58
2018-09-20T01:02:05.532Z,64.03
2018-09-20T01:04:34.414Z,65.42
2018-09-20T01:07:03.566Z,65.37
2018-09-20T01:09:32.334Z,65.41
2018-09-20T01:12:01.087Z,66.52
2018-09-20T01:14:29.930Z,66.09
2018-09-20T01:16:58.719Z,65.93
2018-09-20T01:19:27.515Z,65.27
2018-09-20T01:21:56.579Z,65.31
2018-09-20T01:24:25.362Z,65.50
2018-09-20T01:26:54.169Z,65.99
2018-09-20T01:29:22.951Z,66.08
2018-09-20T01:31:51.736Z,65.55
2018-09-20T01:34:20.515Z,65.92
2018-09-20T01:36:49.670Z,66.11
2018-09-20T01:39:18.464Z,65.74
2018-09-20T01:41:47.642Z,65.36
2018-09-20T01:44:16.420Z,65.91
2018-09-20T01:46:45.228Z,66.37
2018-09-20T01:49:14.017Z,66.09
2018-09-20T01:51:42.805Z,65.96
2018-09-20T01:54:11.612Z,66.27
2018-09-20T01:56:40.437Z,66.38
2018-09-20T01:59:09.223Z,67.37
2018-09-20T02:01:38.038Z,67.02
2018-09-20T02:04:06.847Z,67.09
2018-09-20T02:06:35.930Z,67.73
2018-09-20T02:09:08.016Z,67.73
2018-09-20T02:11:36.859Z,66.59
2018-09-20T02:14:07.463Z,67.85
2018-09-20T02:16:36.533Z,67.44
2018-09-20T02:19:05.540Z,66.92
2018-09-20T02:21:34.371Z,67.08
2018-09-20T02:24:03.315Z,67.68
2018-09-20T02:26:32.160Z,67.96
2018-09-20T02:29:00.940Z,67.89
2018-09-20T02:31:29.739Z,67.76
2018-09-20T02:33:58.499Z,68.19
2018-09-20T02:36:27.708Z,68.14
2018-09-20T02:38:56.899Z,68.26
2018-09-20T02:41:25.693Z,68.42
2018-09-20T02:43:54.458Z,69.28
2018-09-20T02:46:23.211Z,68.43
2018-09-20T02:48:51.994Z,69.29
2018-09-20T02:51:20.816Z,68.56
2018-09-20T02:53:49.629Z,69.07
2018-09-20T02:56:18.414Z,68.91
2018-09-20T02:58:47.315Z,68.88
2018-09-20T03:01:16.164Z,69.27
2018-09-20T03:03:44.972Z,70.28
2018-09-20T03:06:13.765Z,70.02
2018-09-20T03:08:42.547Z,68.51
2018-09-20T03:11:11.329Z,69.47
2018-09-20T03:13:40.133Z,69.31
2018-09-20T03:16:08.936Z,68.83
2018-09-20T03:18:37.686Z,69.43
2018-09-20T03:21:06.678Z,68.53
2018-09-20T03:23:35.421Z,68.70
2018-09-20T03:26:04.200Z,69.33
2018-09-20T03:28:32.971Z,69.07
2018-09-20T03:31:01.942Z,69.43
2018-09-20T03:33:30.703Z,69.08
2018-09-20T03:35:59.449Z,69.66
2018-09-20T03:38:28.425Z,69.28
2018-09-20T03:40:57.259Z,69.26
2018-09-20T03:43:26.011Z,69.24
2018-09-20T03:45:54.826Z,69.15
2018-09-20T03:48:23.596Z,68.84
2018-09-20T03:50:52.565Z,69.85
2018-09-20T03:53:21.406Z,70.70
2018-09-20T03:55:50.202Z,70.27
2018-09-20T03:58:19.003Z,69.65
2018-09-20T04:00:47.803Z,69.88
2018-09-20T04:03:16.561Z,69.59
2018-09-20T04:05:45.349Z,69.02
2018-09-20T04:08:14.128Z,69.54
2018-09-20T04:10:42.939Z,69.61
2018-09-20T04:13:11.752Z,70.09
2018-09-20T04:15:40.584Z,69.30
2018-09-20T04:18:09.355Z,68.78
2018-09-20T04:20:38.200Z,69.23
2018-09-20T04:23:06.994Z,69.33
2018-09-20T04:25:35.799Z,69.74
2018-09-20T04:28:04.595Z,69.22
2018-09-20T04:30:33.383Z,68.79
2018-09-20T04:33:02.133Z,69.14
2018-09-20T04:35:30.968Z,69.06
2018-09-20T04:37:59.760Z,67.94
2018-09-20T04:40:28.577Z,67.40
2018-09-20T04:42:57.441Z,67.18
2018-09-20T04:45:26.278Z,67.55
2018-09-20T04:47:55.270Z,66.64
2018-09-20T04:50:24.060Z,67.39
2018-09-20T04:52:52.855Z,67.29
2018-09-20T04:55:21.644Z,66.29
2018-09-20T04:57:50.386Z,66.27
2018-09-20T05:00:19.175Z,66.33
2018-09-20T05:02:54.563Z,65.52
2018-09-20T05:05:23.337Z,65.08
2018-09-20T05:07:52.101Z,64.97
2018-09-20T05:10:20.891Z,65.70
2018-09-20T05:12:49.696Z,65.71
2018-09-20T05:15:18.869Z,65.81
2018-09-20T05:17:47.622Z,66.29
2018-09-20T05:20:16.460Z,65.28
2018-09-20T05:22:45.252Z,65.64
2018-09-20T05:25:14.030Z,64.69
2018-09-20T05:27:42.767Z,64.40
2018-09-20T05:30:11.562Z,65.21
2018-09-20T05:32:40.312Z,64.61
2018-09-20T05:35:09.189Z,64.95
2018-09-20T05:37:37.981Z,64.11
2018-09-20T05:40:06.831Z,63.57
2018-09-20T05:42:35.955Z,64.43
2018-09-20T05:45:04.991Z,64.27
2018-09-20T05:47:33.788Z,64.40
2018-09-20T05:50:02.636Z,63.42
2018-09-20T05:52:31.422Z,63.25
2018-09-20T05:55:00.188Z,63.58
2018-09-20T05:57:28.947Z,63.28
2018-09-20T05:59:57.704Z,62.47
2018-09-20T06:02:27.408Z,63.04
2018-09-20T06:04:56.378Z,62.49
2018-09-20T06:07:25.146Z,62.20
2018-09-20T06:09:53.954Z,61.76
2018-09-20T06:12:22.784Z,62.55
2018-09-20T06:14:51.599Z,62.58
2018-09-20T06:17:20.386Z,62.20
2018-09-20T06:19:49.183Z,62.32
2018-09-20T06:22:18.007Z,61.96
2018-09-20T06:24:46.799Z,60.94
2018-09-20T06:27:15.590Z,60.94
2018-09-20T06:29:44.768Z,61.10
2018-09-20T06:32:13.556Z,61.40
2018-09-20T06:34:42.392Z,60.99
2018-09-20T06:37:11.363Z,60.98
2018-09-20T06:39:40.189Z,60.23
2018-09-20T06:42:08.976Z,60.93
2018-09-20T06:44:37.766Z,60.73
2018-09-20T06:47:06.605Z,60.86
2018-09-20T06:49:35.401Z,60.46
2018-09-20T06:52:04.249Z,60.13
2018-09-20T06:54:33.033Z,60.03
2018-09-20T06:57:01.800Z,59.60
2018-09-20T06:59:30.560Z,59.16
2018-09-20T07:01:59.331Z,58.80
2018-09-20T07:04:28.114Z,57.65
2018-09-20T07:06:56.923Z,57.50
2018-09-20T07:09:25.719Z,56.78
2018-09-20T07:11:54.615Z,56.90
2018-09-20T07:14:23.445Z,56.83
2018-09-20T07:16:52.242Z,56.37
2018-09-20T07:19:21.064Z,56.92
2018-09-20T07:21:49.975Z,56.40
2018-09-20T07:24:18.761Z,56.23
2018-09-20T07:26:47.571Z,56.37
2018-09-20T07:29:16.352Z,56.14
2018-09-20T07:31:45.138Z,57.41
2018-09-20T07:34:14.217Z,56.36
2018-09-20T07:36:42.988Z,56.33
2018-09-20T07:39:11.897Z,55.99
2018-09-20T07:41:40.887Z,56.09
2018-09-20T07:44:10.083Z,56.20
2018-09-20T07:46:38.874Z,56.28
2018-09-20T07:49:07.793Z,56.17
2018-09-20T07:51:36.600Z,55.70
2018-09-20T07:54:05.403Z,55.28
2018-09-20T07:56:34.226Z,54.33
2018-09-20T07:59:03.243Z,55.07
2018-09-20T08:01:32.100Z,54.40
2018-09-20T08:04:01.043Z,53.86
2018-09-20T08:06:30.037Z,54.40
2018-09-20T08:08:58.867Z,53.80
2018-09-20T08:11:27.647Z,53.05
2018-09-20T08:13:58.678Z,53.68
2018-09-20T08:16:27.547Z,52.95
2018-09-20T08:18:56.418Z,53.45
2018-09-20T08:21:25.234Z,52.71
2018-09-20T08:23:54.205Z,52.19
2018-09-20T08:26:23.047Z,52.90
2018-09-20T08:28:52.111Z,52.07
2018-09-20T08:31:20.991Z,52.05
2018-09-20T08:33:49.777Z,52.43
2018-09-20T08:36:18.607Z,51.43
2018-09-20T08:38:53.678Z,50.84
2018-09-20T08:41:22.547Z,51.09
2018-09-20T08:43:51.323Z,50.65
2018-09-20T08:46:20.186Z,51.00
2018-09-20T08:48:49.001Z,50.04
2018-09-20T08:51:17.755Z,50.14
2018-09-20T08:53:46.546Z,48.86
2018-09-20T08:56:15.295Z,48.01
2018-09-20T08:58:44.098Z,47.56
2018-09-20T09:01:12.924Z,46.73
2018-09-20T09:03:41.696Z,46.38
2018-09-20T09:06:10.480Z,46.07
2018-09-20T09:08:39.279Z,45.01
2018-09-20T09:11:08.058Z,44.87
2018-09-20T09:13:36.888Z,45.32
2018-09-20T09:16:05.704Z,45.00
2018-09-20T09:18:34.483Z,42.37
2018-09-20T09:21:03.290Z,41.72
2018-09-20T09:23:32.082Z,40.84
2018-09-20T09:26:00.871Z,41.25
2018-09-20T09:28:29.749Z,40.50
2018-09-20T09:30:58.620Z,40.42
2018-09-20T09:33:27.440Z,41.40
2018-09-20T09:35:56.215Z,40.86
2018-09-20T09:38:25.001Z,40.43
2018-09-20T09:40:53.801Z,41.16
2018-09-20T09:43:22.597Z,38.99
2018-09-20T09:45:51.379Z,38.57
2018-09-20T09:48:20.383Z,36.89
2018-09-20T09:50:49.184Z,38.26
2018-09-20T09:53:18.048Z,37.43
2018-09-20T09:55:46.890Z,36.99
2018-09-20T09:58:15.676Z,34.98
2018-09-20T10:00:44.457Z,34.99
2018-09-20T10:03:13.247Z,33.99
2018-09-20T10:05:42.021Z,34.88
2018-09-20T10:08:10.804Z,35.67
2018-09-20T10:10:39.612Z,35.71
2018-09-20T10:13:08.491Z,34.55
2018-09-20T10:15:37.415Z,33.21
2018-09-20T10:18:06.376Z,31.22
2018-09-20T10:20:35.171Z,31.02
2018-09-20T10:23:03.949Z,29.88
2018-09-20T10:25:32.743Z,29.13
2018-09-20T10:28:01.659Z,28.25
2018-09-20T10:30:30.610Z,27.37
2018-09-20T10:32:59.374Z,28.82
2018-09-20T10:35:28.250Z,30.53
2018-09-20T10:37:57.132Z,30.09
2018-09-20T10:40:25.961Z,30.47
2018-09-20T10:42:54.986Z,28.74
2018-09-20T10:45:23.876Z,28.88
2018-09-20T10:47:52.765Z,28.80
2018-09-20T10:50:21.571Z,28.33
2018-09-20T10:52:50.451Z,28.80
2018-09-20T10:55:19.283Z,28.56
2018-09-20T10:57:48.089Z,29.18
2018-09-20T11:00:17.004Z,29.17
2018-09-20T11:02:45.921Z,30.05
2018-09-20T11:05:14.748Z,29.98
2018-09-20T11:07:44.163Z,30.51
2018-09-20T11:10:13.095Z,29.31
2018-09-20T11:12:41.892Z,31.87
2018-09-20T11:15:10.942Z,32.55
2018-09-20T11:17:39.844Z,32.97
2018-09-20T11:20:09.020Z,33.20
2018-09-20T11:22:37.851Z,33.71
2018-09-20T11:25:07.180Z,33.48
2018-09-20T11:27:36.636Z,33.31
2018-09-20T11:30:10.088Z,33.84
2018-09-20T11:32:38.888Z,33.46
2018-09-20T11:35:08.007Z,33.85
2018-09-20T11:37:38.041Z,33.58
2018-09-20T11:40:07.029Z,34.70
2018-09-20T11:42:36.731Z,35.13
2018-09-20T11:45:05.797Z,35.19
2018-09-20T11:47:34.648Z,34.81
2018-09-20T11:50:03.566Z,34.50
2018-09-20T11:52:32.396Z,34.77
2018-09-20T11:55:01.168Z,35.22
2018-09-20T11:57:29.995Z,34.86
2018-09-20T11:59:58.867Z,35.01
2018-09-20T12:02:27.670Z,35.16
2018-09-20T12:04:56.590Z,34.86
2018-09-20T12:07:25.432Z,33.95
2018-09-20T12:09:55.323Z,34.09
2018-09-20T12:12:24.153Z,34.83
2018-09-20T12:14:52.968Z,34.62
2018-09-20T12:17:21.814Z,34.46
2018-09-20T12:19:50.620Z,34.93
2018-09-20T12:22:19.445Z,34.82
2018-09-20T12:24:48.367Z,34.95
2018-09-20T12:27:17.120Z,34.34
2018-09-20T12:29:45.962Z,35.15
2018-09-20T12:32:15.123Z,35.20
2018-09-20T12:34:44.108Z,34.19
2018-09-20T12:37:13.012Z,33.98
2018-09-20T12:39:41.883Z,34.36
2018-09-20T12:42:10.809Z,33.82
2018-09-20T12:44:39.827Z,34.11
2018-09-20T12:47:08.587Z,33.03
2018-09-20T12:49:37.449Z,33.90
2018-09-20T12:52:06.303Z,32.64
2018-09-20T12:54:35.154Z,32.61
2018-09-20T12:57:04.146Z,32.37
2018-09-20T12:59:33.039Z,33.18
2018-09-20T13:02:01.914Z,31.75
2018-09-20T13:04:31.005Z,32.19
2018-09-20T13:06:59.793Z,30.81
2018-09-20T13:09:28.667Z,29.84
2018-09-20T13:11:57.482Z,29.41
2018-09-20T13:14:26.407Z,29.63
2018-09-20T13:16:55.284Z,29.98
2018-09-20T13:19:24.079Z,29.35
2018-09-20T13:21:52.914Z,29.88
2018-09-20T13:24:21.699Z,29.81
2018-09-20T13:26:50.478Z,29.85
2018-09-20T13:29:19.320Z,29.50
2018-09-20T13:31:48.172Z,28.32
2018-09-20T13:34:17.134Z,29.30
2018-09-20T13:36:45.953Z,28.27
2018-09-20T13:39:14.779Z,27.92
2018-09-20T13:41:43.610Z,28.11
2018-09-20T13:44:12.407Z,28.37
2018-09-20T13:46:41.237Z,28.83
2018-09-20T13:49:10.061Z,28.94
2018-09-20T13:51:38.926Z,28.29
2018-09-20T13:54:07.730Z,27.69
2018-09-20T13:56:36.576Z,27.26
2018-09-20T13:59:05.953Z,26.91
2018-09-20T14:01:34.855Z,28.12
2018-09-20T14:04:03.680Z,28.07
2018-09-20T14:06:32.679Z,28.59
2018-09-20T14:09:01.464Z,29.33
2018-09-20T14:11:30.247Z,29.50
2018-09-20T14:13:59.039Z,30.03
2018-09-20T14:16:27.869Z,29.97
2018-09-20T14:18:56.750Z,30.02
2018-09-20T14:21:25.529Z,30.44
2018-09-20T14:23:54.451Z,30.81
2018-09-20T14:26:23.224Z,30.90
2018-09-20T14:28:52.102Z,31.71
2018-09-20T14:31:21.083Z,31.92
2018-09-20T14:33:49.914Z,32.03
2018-09-20T14:36:18.692Z,32.30
2018-09-20T14:38:47.456Z,32.24
2018-09-20T14:41:16.284Z,33.69
2018-09-20T14:43:45.073Z,33.98
2018-09-20T14:46:13.874Z,34.04
2018-09-20T14:48:42.656Z,33.63
2018-09-20T14:51:11.816Z,34.54
2018-09-20T14:53:40.685Z,34.62
2018-09-20T14:56:09.491Z,33.55
2018-09-20T14:58:38.307Z,33.03
2018-09-20T15:01:07.690Z,33.02
2018-09-20T15:03:36.690Z,33.06
2018-09-20T15:06:05.559Z,34.31
2018-09-20T15:08:34.544Z,33.56
2018-09-20T15:11:03.969Z,34.16
2018-09-20T15:13:32.770Z,34.00
2018-09-20T15:16:01.564Z,33.58
2018-09-20T15:18:30.447Z,33.90
2018-09-20T15:20:59.266Z,33.92
2018-09-20T15:23:28.062Z,34.96
2018-09-20T15:25:56.864Z,34.59
2018-09-20T15:28:25.651Z,34.70
2018-09-20T15:30:54.468Z,35.44
2018-09-20T15:33:23.302Z,34.93
2018-09-20T15:35:52.231Z,35.32
2018-09-20T15:38:21.099Z,35.07
2018-09-20T15:40:50.818Z,36.02
2018-09-20T15:43:19.608Z,36.19
2018-09-20T15:45:48.362Z,35.53
2018-09-20T15:48:17.174Z,36.66
2018-09-20T15:50:46.061Z,36.24
2018-09-20T15:53:14.877Z,36.08
2018-09-20T15:55:43.758Z,36.35
2018-09-20T15:58:12.664Z,36.59
2018-09-20T16:00:42.050Z,36.85
2018-09-20T16:03:10.898Z,37.52
2018-09-20T16:05:39.711Z,37.60
2018-09-20T16:08:08.559Z,36.55
2018-09-20T16:10:37.341Z,37.30
2018-09-20T16:13:06.130Z,37.64
2018-09-20T16:15:34.927Z,37.43
2018-09-20T16:18:03.705Z,38.13
2018-09-20T16:20:32.572Z,38.23
2018-09-20T16:23:01.473Z,37.80
2018-09-20T16:25:30.254Z,37.92
2018-09-20T16:28:04.418Z,37.95
2018-09-20T16:30:50.388Z,39.10
2018-09-20T16:33:38.842Z,38.82
2018-09-20T16:36:16.488Z,39.01
2018-09-20T16:38:50.200Z,39.57
2018-09-20T16:41:24.611Z,39.19
2018-09-20T16:43:53.408Z,38.96
2018-09-20T16:46:22.153Z,39.17
2018-09-20T16:48:51.352Z,39.08
2018-09-20T16:51:20.668Z,40.22
2018-09-20T16:53:49.873Z,39.57
2018-09-20T16:56:18.706Z,40.18
2018-09-20T16:58:48.482Z,40.83
2018-09-20T17:01:17.772Z,40.88
2018-09-20T17:03:46.859Z,41.52
2018-09-20T17:06:15.906Z,41.78
2018-09-20T17:08:45.073Z,41.48
2018-09-20T17:11:13.847Z,41.90
2018-09-20T17:13:42.713Z,42.02
2018-09-20T17:16:11.551Z,41.78
2018-09-20T17:18:40.554Z,42.10
2018-09-20T17:21:09.626Z,41.71
2018-09-20T17:23:38.545Z,41.10
2018-09-20T17:26:07.769Z,41.77
2018-09-20T17:28:36.695Z,41.85
2018-09-20T17:31:05.916Z,41.93
2018-09-20T17:33:34.714Z,41.19
2018-09-20T17:36:03.554Z,41.98
2018-09-20T17:38:33.274Z,41.95
2018-09-20T17:41:06.001Z,41.53
2018-09-20T17:43:41.270Z,42.67
2018-09-20T17:46:10.099Z,42.18
2018-09-20T17:48:39.209Z,42.75
2018-09-20T17:51:08.503Z,42.85
2018-09-20T17:53:37.896Z,42.76
2018-09-20T17:56:07.489Z,42.07
2018-09-20T17:58:36.800Z,41.64
2018-09-20T18:01:05.779Z,42.44
2018-09-20T18:03:34.631Z,41.65
2018-09-20T18:06:03.636Z,42.40
2018-09-20T18:08:32.460Z,41.84
2018-09-20T18:11:01.339Z,41.95
2018-09-20T18:13:30.133Z,41.67
2018-09-20T18:15:58.941Z,41.22
2018-09-20T18:18:27.821Z,41.08
2018-09-20T18:20:56.782Z,41.17
2018-09-20T18:23:25.549Z,41.89
2018-09-20T18:25:54.349Z,41.85
2018-09-20T18:28:23.169Z,42.14
2018-09-20T18:30:51.952Z,42.25
2018-09-20T18:33:20.719Z,42.59
2018-09-20T18:35:49.499Z,42.91
2018-09-20T18:38:18.434Z,42.91
2018-09-20T18:40:47.215Z,42.94
2018-09-20T18:43:15.938Z,43.21
2018-09-20T18:45:44.804Z,42.87
2018-09-20T18:48:13.614Z,42.41
2018-09-20T18:50:42.796Z,42.62
2018-09-20T18:53:11.612Z,42.67
2018-09-20T18:55:40.452Z,43.57
2018-09-20T18:58:09.387Z,43.82
2018-09-20T19:00:38.227Z,43.70
2018-09-20T19:03:07.182Z,43.25
2018-09-20T19:05:36.134Z,43.57
2018-09-20T19:08:04.974Z,43.32
2018-09-20T19:10:33.819Z,43.28
2018-09-20T19:13:02.813Z,43.67
2018-09-20T19:15:31.699Z,44.50
2018-09-20T19:18:00.456Z,44.01
2018-09-20T19:20:29.277Z,43.68
2018-09-20T19:22:58.095Z,44.04
2018-09-20T19:25:26.949Z,43.96
2018-09-20T19:27:56.684Z,44.16
2018-09-20T19:30:27.936Z,43.95
2018-09-20T19:32:56.768Z,43.84
2018-09-20T19:35:25.560Z,42.56
2018-09-20T19:37:54.349Z,43.23
2018-09-20T19:40:23.143Z,43.32
2018-09-20T19:42:51.924Z,43.09
2018-09-20T19:45:20.880Z,42.71
2018-09-20T19:47:49.650Z,43.31
2018-09-20T19:50:18.416Z,43.21
2018-09-20T19:52:47.183Z,43.11
2018-09-20T19:55:15.942Z,42.42
2018-09-20T19:57:45.271Z,43.28
2018-09-20T20:00:18.913Z,42.93
2018-09-20T20:02:47.895Z,43.26
2018-09-20T20:05:16.684Z,42.67
2018-09-20T20:07:45.422Z,43.04
2018-09-20T20:10:14.275Z,42.12
2018-09-20T20:12:43.067Z,43.15
2018-09-20T20:15:11.818Z,42.47
2018-09-20T20:17:40.641Z,42.89
2018-09-20T20:20:09.463Z,42.88
2018-09-20T20:22:38.257Z,42.71
2018-09-20T20:25:07.039Z,42.65
2018-09-20T20:27:35.814Z,42.78
2018-09-20T20:30:09.131Z,42.72
2018-09-20T20:32:37.974Z,42.53
2018-09-20T20:35:07.288Z,42.35
2018-09-20T20:37:36.068Z,42.69
2018-09-20T20:40:05.303Z,42.00
2018-09-20T20:42:34.087Z,42.73
2018-09-20T20:45:03.223Z,42.20
2018-09-20T20:47:32.262Z,42.90
2018-09-20T20:50:00.998Z,43.14
2018-09-20T20:52:29.783Z,43.08
2018-09-20T20:54:58.594Z,42.89
2018-09-20T20:57:27.411Z,43.00
2018-09-20T20:59:56.203Z,42.92
2018-09-20T21:02:24.987Z,42.48
2018-09-20T21:04:53.755Z,42.33
2018-09-20T21:07:22.884Z,43.06
2018-09-20T21:09:51.689Z,42.66
2018-09-20T21:12:20.554Z,43.01
2018-09-20T21:14:49.349Z,42.48
2018-09-20T21:17:18.178Z,42.73
2018-09-20T21:19:46.988Z,42.50
2018-09-20T21:22:15.803Z,43.02
2018-09-20T21:24:44.615Z,42.71
2018-09-20T21:27:13.361Z,42.83
2018-09-20T21:29:42.132Z,42.29
2018-09-20T21:32:11.330Z,42.29
2018-09-20T21:34:40.305Z,43.02
2018-09-20T21:37:09.151Z,42.37
2018-09-20T21:39:37.998Z,42.84
2018-09-20T21:42:06.777Z,43.35
2018-09-20T21:44:35.535Z,42.72
2018-09-20T21:47:04.324Z,43.31
2018-09-20T21:49:33.115Z,42.99
2018-09-20T21:52:01.887Z,43.34
2018-09-20T21:54:30.644Z,43.19
2018-09-20T21:56:59.437Z,43.91
2018-09-20T21:59:28.212Z,43.70
2018-09-20T22:02:01.066Z,44.04
2018-09-20T22:04:29.956Z,44.60
2018-09-20T22:06:59.396Z,44.88
2018-09-20T22:09:28.624Z,44.47
2018-09-20T22:11:57.369Z,45.05
2018-09-20T22:14:26.057Z,45.20
2018-09-20T22:16:54.847Z,44.92
2018-09-20T22:19:23.558Z,45.75
2018-09-20T22:21:52.377Z,45.88
2018-09-20T22:24:21.159Z,45.23
2018-09-20T22:26:49.951Z,46.24
2018-09-20T22:29:18.721Z,45.74
2018-09-20T22:31:47.525Z,45.11
2018-09-20T22:34:16.264Z,45.04
2018-09-20T22:36:45.023Z,45.26
2018-09-20T22:39:13.801Z,46.23
2018-09-20T22:41:42.682Z,46.33
2018-09-20T22:44:11.939Z,45.97
2018-09-20T22:46:40.679Z,46.33
2018-09-20T22:49:09.429Z,46.19
2018-09-20T22:51:38.135Z,45.78
2018-09-20T22:54:06.870Z,45.59
2018-09-20T22:56:35.688Z,46.63
2018-09-20T22:59:04.453Z,46.12
2018-09-20T23:01:33.187Z,47.06
2018-09-20T23:04:01.929Z,46.69
2018-09-20T23:06:30.670Z,46.99
2018-09-20T23:08:59.458Z,47.15
2018-09-20T23:11:28.197Z,46.66
2018-09-20T23:13:57.023Z,47.04
2018-09-20T23:16:25.741Z,47.48
2018-09-20T23:18:54.439Z,47.79
2018-09-20T23:21:23.157Z,47.72
2018-09-20T23:23:51.887Z,47.70
2018-09-20T23:26:20.676Z,47.78
2018-09-20T23:28:49.604Z,47.58
2018-09-20T23:31:18.326Z,48.08
2018-09-20T23:33:47.130Z,48.43
2018-09-20T23:36:15.855Z,48.63
2018-09-20T23:38:44.673Z,48.48
2018-09-20T23:41:13.735Z,48.46
2018-09-20T23:43:42.442Z,47.92
2018-09-20T23:46:11.140Z,48.67
2018-09-20T23:48:39.867Z,48.67
2018-09-20T23:51:08.704Z,49.34
2018-09-20T23:53:37.504Z,50.10
2018-09-20T23:56:06.307Z,50.44
2018-09-20T23:58:35.162Z,51.24
